Hoopersville, Maryland
Current Conditions -  °F | °C
As of 9:52 AM on Wednesday 22 Oct 2014 (Local Time) from KNHK Reporting Station
Light Rain Light Rain  
Wind Chill: 55°   Ceiling: 1200
Heat Index: 55°   Visibility: 3mi
Dew Point: 52°   Wind: 8mph
Humidity: 89%   Direction: 350°N
Pressure: 29.85"   Gusts: NA
Location:  38.3287°N, 76.2289°W
Report Text: KNHK 221352Z 35007KT 3SM -RA BR SCT009 BKN012 OVC019 13/11 A2985 RMK AO2 SLP108 T2 SET P0013 T01280111
Loading
Personal Weather Stations






























Interactive Weather Map
Tropical Storm Tracking
New forecast layout! Learn more

10-Day Weather Forecast

Advertisements
Track Severe Weather on mobile